Accueil
METAR-TAF:

METAR-TAF

Aéroports :

Iekaterinbourg, Russie

Aéroport Koltsovo

latitude: 56-50N, longitude: 060-38E, altitude: 237 m

Observation

Le bulletin a été fait il y a 36 minutes, à 11:30 UTC
Vent 14 kt de est/sud-est
Température -24°C
Humidité 57%
Pression 1045 hPa
Visibilité 10 km ou plus
Chasse-neige basse

METAR: USSS 221130Z 11007MPS 9999 DRSN NSC M24/M30 Q1045 R08L/450145 NOSIG RMK QFE763/1018

Heure: 17:06 (12:06 UTC)

Prévision

Le bulletin a été fait il y a 1 heure et 11 minutes, à 10:55 UTC
Prévision valable du 22 à 12 UTC au 23 à 12 UTC
Vent 12 kt de est
Visibilité 10 km ou plus
Nuages fragmentés à une hauteur de 1500 ft
Temporairement
du 22 à 12 UTC au 22 à 21 UTC
Vent 23 kt de est/sud-est
Visibilité: 3100 m
Chasse-neige élevée

TAF: USSS 221055Z 2212/2312 10006MPS 9999 BKN015 TEMPO 2212/2221 11012MPS 3100 BLSN

Observations et prévisions météorologiques de plus de 4000 aéroports (messages METAR et TAF).

Les stations disponibles sont représentées par des disques jaunes et rouges sur la carte.

Passer la souris dessus pour voir le nom de la station.

Cliquer dessus pour voir les observations et prévisions météorologiques.

Pour changer de carte: cliquez sur les boutons verts avec une croix noire pour zoomer, sur le bouton vert avec un tiret pour effectuer un zoom arrière, ou sur les flèches vertes pour les cartes adjacentes.


METAR-TAF: